Afton, VA (22920)

2:02 PM EST on February 25, 2017 (GMT -0500)
| | Change Station
Active Advisory: Severe Thunderstorm Watch

Elev -9999 ft 0.00 °N, 0.00 °E | Updated 7 minutes ago

Overcast
Overcast
°F
Feels Like °F
N
Wind Variable Wind from North
Gusts mph

Today
High -- | Low -- °F
--% Chance of Precip.
Yesterday
High -- | Low -- °F
Precip. -- in
Pressure 29.59 in
Visibility 10.0 miles
Clouds Scattered Clouds 4800 ft
Overcast 5000 ft
Dew Point Not available.
Humidity Not available.
Rainfall --
Snow Depth Not available.
6:52 AM 6:05 PM
Waning Crescent, 1% visible
METAR KSHD 251855Z AUTO 26016G23KT 10SM SCT048 OVC050 15/05 A2959 RMK AO2 LTG DSNT E T01450051
Pressure 29.59 in
Visibility 10.0 miles
Clouds Scattered Clouds 4800 ft
Overcast 5000 ft
Dew Point Not available.
Humidity Not available.
Rainfall --
Snow Depth Not available.
6:52 AM 6:05 PM
Waning Crescent, 1% visible
METAR KSHD 251855Z AUTO 26016G23KT 10SM SCT048 OVC050 15/05 A2959 RMK AO2 LTG DSNT E T01450051

Get Your Daily Forecast Email!

Thanks for signing up!

Be on the lookout for a verification email in your inbox.

You'll start receiving the daily forecast at 8 AM.

×

10-Day Weather Forecast

Almanac

Astronomy

Feb. 25, 2017 Rise Set
Actual Time
Civil Twilight
Nautical Twilight
Astronomical Twilight
Moon
Length of Visible Light
Length of Day
Tomorrow will be .
, % of the Moon is Illuminated

Today's Extremes

State Highs State Lows

Community

WunderPhotos

Upload Photos

1,962,540 photos uploaded!

WunderBlog® & News

Nearby

Air Quality

  Air Quality AQ Index Pollutant
Not available.

Snow Depth

Station Depth Elevation

Earthquake Activity

City Distance Mag. Time & Date
Minimum magnitude displayed is 2.5.

Coastal Water Temperatures

Place Temperature

Stations

Nearby Weather Stations

Station Location Temp. Windchill Dew Point Humidity Wind Precip. Elev Updated Type
                   

Watches & Warnings

Severe Thunderstorm Watch
Issued: 1:43 PM EST Feb. 25, 2017 – National Weather Service

Severe Thunderstorm Watch 39 remains in effect until 800 PM EST

VA
. Virginia counties included are

Albemarle Amelia Appomattox
Arlington Brunswick Buckingham
Campbell Caroline Charles City
Charlotte Chesterfield Clarke
Culpeper Cumberland Dinwiddie
Essex Fairfax Fauquier
Fluvanna Gloucester Goochland
Greene Greensville Halifax
Hanover Henrico Isle of Wight
James City King And Queen King George
King William Lancaster Loudoun
Louisa Lunenburg Madison
Mathews Mecklenburg Middlesex
Nelson New Kent Northumberland
Nottoway Orange Pittsylvania
Powhatan Prince Edward Prince George
Prince William Rappahannock Richmond
Southampton Spotsylvania Stafford
Surry Sussex Westmoreland
York


Virginia independent cities included are

Alexandria Charlottesville Colonial Heights
Danville Emporia Fairfax
Falls church Franklin Fredericksburg
Hampton Hopewell Manassas
Manassas Park Newport News Petersburg
Poquoson Richmond Williamsburg